Time;durP1;ratioP1;P1;durP2;ratioP2;P2;SDS_P1;SDS_P2;PMS_P1;PMS_P2;Temp;Humidity;BMP_temperature;BMP_pressure;BME280_temperature;BME280_humidity;BME280_pressure;Samples;Min_cycle;Max_cycle;Signal;HPM_P1;HPM_P2
2023/12/24 00:02:00;;;;;;;1.97;0.93;;;;;;;;;;6313759;28;20188;-61
2023/12/24 00:05:01;;;;;;;2.50;0.90;;;;;;;;;;6314123;28;20198;-62
2023/12/24 00:08:02;;;;;;;1.90;0.80;;;;;;;;;;6312947;28;20203;-62
2023/12/24 00:11:03;;;;;;;2.17;0.60;;;;;;;;;;6313658;28;20180;-63
2023/12/24 00:14:05;;;;;;;1.20;0.50;;;;;;;;;;6306647;28;20636;-62
2023/12/24 00:17:06;;;;;;;1.50;0.50;;;;;;;;;;6314721;28;20281;-62
2023/12/24 00:20:07;;;;;;;2.37;0.50;;;;;;;;;;6327314;28;20183;-62
2023/12/24 00:23:09;;;;;;;0.30;0.30;;;;;;;;;;6304731;28;20234;-62
2023/12/24 00:26:10;;;;;;;1.43;0.30;;;;;;;;;;6327084;28;20301;-62
2023/12/24 00:29:11;;;;;;;0.80;0.50;;;;;;;;;;6320061;28;20266;-61
2023/12/24 00:32:12;;;;;;;1.07;0.50;;;;;;;;;;6329961;28;20186;-62
2023/12/24 00:35:13;;;;;;;0.40;0.40;;;;;;;;;;6314710;28;20180;-61
2023/12/24 00:38:14;;;;;;;0.40;0.40;;;;;;;;;;6318062;28;20195;-61
2023/12/24 00:41:16;;;;;;;0.40;0.40;;;;;;;;;;6307861;28;20200;-61
2023/12/24 00:44:17;;;;;;;1.80;0.50;;;;;;;;;;6316995;28;20231;-62
2023/12/24 00:47:18;;;;;;;0.30;0.30;;;;;;;;;;6332642;28;20195;-62
2023/12/24 00:50:19;;;;;;;0.40;0.40;;;;;;;;;;6318436;28;20191;-61
2023/12/24 00:53:20;;;;;;;1.27;0.40;;;;;;;;;;6315651;28;20195;-62
2023/12/24 00:56:21;;;;;;;0.50;0.40;;;;;;;;;;6316845;28;20187;-62
2023/12/24 00:59:22;;;;;;;0.27;0.27;;;;;;;;;;6316891;28;20187;-62
2023/12/24 01:02:23;;;;;;;0.50;0.50;;;;;;;;;;6317046;28;20195;-62
2023/12/24 01:05:24;;;;;;;0.70;0.70;;;;;;;;;;6317641;28;20184;-62
2023/12/24 01:08:25;;;;;;;2.43;0.40;;;;;;;;;;6316616;28;20274;-62
2023/12/24 01:11:26;;;;;;;1.07;0.70;;;;;;;;;;6332317;28;20182;-62
2023/12/24 01:14:27;;;;;;;0.40;0.40;;;;;;;;;;6317201;28;20183;-62
2023/12/24 01:17:29;;;;;;;0.40;0.40;;;;;;;;;;6317815;28;20191;-62
2023/12/24 01:20:30;;;;;;;1.10;0.40;;;;;;;;;;6317613;28;20628;-62
2023/12/24 01:23:31;;;;;;;0.27;0.27;;;;;;;;;;6344309;27;20201;-62
2023/12/24 01:26:35;;;;;;;0.67;0.30;;;;;;;;;;6312379;28;20208;-62
2023/12/24 01:29:36;;;;;;;0.30;0.30;;;;;;;;;;6332311;28;20193;-62
2023/12/24 01:32:37;;;;;;;0.50;0.40;;;;;;;;;;6318198;28;20188;-63
2023/12/24 01:35:40;;;;;;;0.73;0.40;;;;;;;;;;6308955;28;20209;-63
2023/12/24 01:38:41;;;;;;;0.77;0.43;;;;;;;;;;6326043;28;20217;-63
2023/12/24 01:41:44;;;;;;;0.47;0.40;;;;;;;;;;6312640;28;20188;-62
2023/12/24 01:44:45;;;;;;;0.40;0.40;;;;;;;;;;6333516;28;20232;-63
2023/12/24 01:47:46;;;;;;;0.40;0.40;;;;;;;;;;6314784;28;20207;-63
2023/12/24 01:50:47;;;;;;;0.70;0.50;;;;;;;;;;6315103;28;20198;-62
2023/12/24 01:53:50;;;;;;;0.67;0.67;;;;;;;;;;6334093;28;20183;-63
2023/12/24 01:56:51;;;;;;;1.20;0.80;;;;;;;;;;6325786;28;20653;-63
2023/12/24 01:59:53;;;;;;;0.40;0.40;;;;;;;;;;6321597;27;20198;-63
2023/12/24 02:02:54;;;;;;;0.50;0.50;;;;;;;;;;6309520;27;20187;-62
2023/12/24 02:05:55;;;;;;;0.73;0.60;;;;;;;;;;6322595;28;20208;-62
2023/12/24 02:08:56;;;;;;;0.43;0.43;;;;;;;;;;6315433;28;20185;-62
2023/12/24 02:11:57;;;;;;;0.40;0.40;;;;;;;;;;6331933;28;20211;-62
2023/12/24 02:14:58;;;;;;;0.47;0.47;;;;;;;;;;6320876;28;20270;-62
2023/12/24 02:18:00;;;;;;;4.00;2.70;;;;;;;;;;6315094;28;20179;-62
2023/12/24 02:21:04;;;;;;;3.07;2.40;;;;;;;;;;6315743;28;20666;-62
2023/12/24 02:24:05;;;;;;;2.97;1.90;;;;;;;;;;6315058;28;20189;-62
2023/12/24 02:27:16;;;;;;;1.60;1.30;;;;;;;;;;6314662;28;20216;-62
2023/12/24 02:30:23;;;;;;;1.57;1.47;;;;;;;;;;6332298;28;20200;-62
2023/12/24 02:33:25;;;;;;;3.27;1.07;;;;;;;;;;6331519;28;20245;-61
2023/12/24 02:36:26;;;;;;;1.50;1.10;;;;;;;;;;6331442;28;20184;-61
2023/12/24 02:39:27;;;;;;;3.03;1.10;;;;;;;;;;6314772;28;20273;-62
2023/12/24 02:42:28;;;;;;;1.83;1.30;;;;;;;;;;6311804;28;20187;-63
2023/12/24 02:45:29;;;;;;;1.60;0.97;;;7.80;81.90;;;;;;6290824;28;20297;-62
2023/12/24 02:48:29;;;;;;;1.70;1.30;;;6.20;79.70;;;;;;6273628;28;20689;-63
2023/12/24 02:51:30;;;;;;;1.10;0.80;;;6.10;79.10;;;;;;6273861;28;20184;-62
2023/12/24 02:54:31;;;;;;;1.27;1.10;;;;;;;;;;6300122;28;20192;-62
2023/12/24 02:57:32;;;;;;;2.23;1.20;;;;;;;;;;6280856;28;20198;-62
2023/12/24 03:00:33;;;;;;;1.80;1.20;;;;;;;;;;6291124;28;20199;-62
2023/12/24 03:03:34;;;;;;;2.33;0.87;;;;;;;;;;6289318;28;20185;-63
2023/12/24 03:06:35;;;;;;;1.90;1.17;;;;;;;;;;6293608;28;20206;-62
2023/12/24 03:09:36;;;;;;;0.70;0.70;;;;;;;;;;6318294;28;20180;-62
2023/12/24 03:12:37;;;;;;;1.00;0.90;;;;;;;;;;6309818;28;20188;-63
2023/12/24 03:15:38;;;;;;;1.07;0.90;;;;;;;;;;6290088;28;20188;-62
2023/12/24 03:18:39;;;;;;;1.93;0.90;;;;;;;;;;6286530;28;20188;-62
2023/12/24 03:21:44;;;;;;;1.20;0.83;;;;;;;;;;6289008;28;20185;-62
2023/12/24 03:24:45;;;;;;;1.23;0.73;;;;;;;;;;6282137;28;20185;-61
2023/12/24 03:27:46;;;;;;;1.63;1.00;;;;;;;;;;6303346;28;20246;-62
2023/12/24 03:30:47;;;;;;;0.97;0.70;;;;;;;;;;6289913;28;20216;-61
2023/12/24 03:33:48;;;;;;;1.13;0.70;;;;;;;;;;6289130;28;20333;-62
2023/12/24 03:36:49;;;;;;;0.87;0.77;;;;;;;;;;6286693;28;20207;-62
2023/12/24 03:39:50;;;;;;;1.70;0.73;;;;;;;;;;6286056;28;20189;-61
2023/12/24 03:42:51;;;;;;;0.63;0.60;;;;;;;;;;6292089;28;20196;-62
2023/12/24 03:45:52;;;;;;;1.93;0.93;;;;;;;;;;6290521;28;20236;-61
2023/12/24 03:48:53;;;;;;;1.00;0.63;;;6.00;79.30;;;;;;6288742;28;20180;-61
2023/12/24 03:51:54;;;;;;;1.20;0.60;;;;;;;;;;6293091;28;20188;-61
2023/12/24 03:54:55;;;;;;;1.57;0.80;;;;;;;;;;6290088;28;20199;-62
2023/12/24 03:57:56;;;;;;;0.80;0.80;;;;;;;;;;6287674;28;20185;-62
2023/12/24 04:00:57;;;;;;;0.77;0.70;;;;;;;;;;6277300;28;20204;-62
2023/12/24 04:03:58;;;;;;;1.40;0.70;;;;;;;;;;6305918;28;20196;-63
2023/12/24 04:07:00;;;;;;;1.33;0.87;;;;;;;;;;6304676;28;20196;-62
2023/12/24 04:10:01;;;;;;;2.23;1.20;;;;;;;;;;6288061;28;20222;-63
2023/12/24 04:13:02;;;;;;;0.80;0.80;;;;;;;;;;6288826;28;20186;-63
2023/12/24 04:16:03;;;;;;;1.53;0.90;;;;;;;;;;6285001;28;20196;-61
2023/12/24 04:19:05;;;;;;;0.70;0.70;;;;;;;;;;6304836;28;20179;-62
2023/12/24 04:22:06;;;;;;;1.13;0.70;;;;;;;;;;6288447;28;20394;-62
2023/12/24 04:25:07;;;;;;;1.00;0.73;;;;;;;;;;6288882;28;20195;-63
2023/12/24 04:28:08;;;;;;;0.93;0.87;;;;;;;;;;6287842;28;20204;-63
2023/12/24 04:31:10;;;;;;;1.40;0.87;;;;;;;;;;6290400;28;20195;-63
2023/12/24 04:34:11;;;;;;;0.90;0.70;;;;;;;;;;6288792;28;20189;-63
2023/12/24 04:37:12;;;;;;;0.97;0.80;;;;;;;;;;6288435;28;20184;-62
2023/12/24 04:40:13;;;;;;;0.77;0.77;;;;;;;;;;6288210;28;20227;-61
2023/12/24 04:43:14;;;;;;;1.00;0.90;;;;;;;;;;6305072;28;20184;-62
2023/12/24 04:46:15;;;;;;;0.97;0.80;;;;;;;;;;6312960;28;20211;-62
2023/12/24 04:49:16;;;;;;;2.73;0.80;;;4.70;83.70;;;;;;6313742;28;20179;-62
2023/12/24 04:52:16;;;;;;;0.70;0.60;;;4.50;83.70;;;;;;6313649;28;20211;-62
2023/12/24 04:55:19;;;;;;;1.37;0.70;;;4.50;84.10;;;;;;6294616;28;20216;-62
2023/12/24 04:58:20;;;;;;;1.00;0.60;;;4.50;83.30;;;;;;6299317;28;20192;-62
2023/12/24 05:01:20;;;;;;;0.93;0.70;;;4.50;83.80;;;;;;6295852;28;20245;-62
2023/12/24 05:04:21;;;;;;;0.60;0.50;;;4.50;83.80;;;;;;6290339;28;20185;-61
2023/12/24 05:07:22;;;;;;;0.97;0.87;;;4.60;83.70;;;;;;6294436;28;20258;-62
2023/12/24 05:10:22;;;;;;;0.87;0.70;;;4.70;84.50;;;;;;6294253;28;20196;-62
2023/12/24 05:13:23;;;;;;;0.50;0.50;;;4.70;84.20;;;;;;6296269;28;20221;-62
2023/12/24 05:16:24;;;;;;;0.60;0.60;;;4.80;83.00;;;;;;6295645;28;20193;-63
2023/12/24 05:19:24;;;;;;;0.70;0.70;;;4.80;83.30;;;;;;6295907;28;20188;-63
2023/12/24 05:22:25;;;;;;;0.70;0.50;;;4.90;83.20;;;;;;6298347;28;20205;-63
2023/12/24 05:25:26;;;;;;;1.20;0.70;;;4.90;83.20;;;;;;6316540;28;20218;-61
2023/12/24 05:28:27;;;;;;;2.00;0.60;;;4.90;83.00;;;;;;6292598;28;20658;-63
2023/12/24 05:31:28;;;;;;;0.50;0.50;;;5.00;83.40;;;;;;6298702;28;20192;-62
2023/12/24 05:34:28;;;;;;;0.70;0.60;;;5.00;83.40;;;;;;6301066;28;20179;-62
2023/12/24 05:37:29;;;;;;;1.00;0.60;;;5.00;83.50;;;;;;6306362;28;20184;-63
2023/12/24 05:40:30;;;;;;;0.60;0.50;;;5.10;84.30;;;;;;6314621;28;20200;-62
2023/12/24 05:43:30;;;;;;;0.40;0.40;;;5.10;83.70;;;;;;6314443;28;20195;-62
2023/12/24 05:46:31;;;;;;;0.50;0.50;;;5.20;83.70;;;;;;6297719;28;20223;-63
2023/12/24 05:49:33;;;;;;;0.93;0.70;;;5.20;83.50;;;;;;6294198;28;20184;-62
2023/12/24 05:52:34;;;;;;;1.67;0.90;;;5.20;82.80;;;;;;6290895;28;20189;-62
2023/12/24 05:55:35;;;;;;;1.00;0.70;;;5.30;83.50;;;;;;6329403;28;20179;-62
2023/12/24 05:58:36;;;;;;;0.63;0.60;;;5.30;83.50;;;;;;6299886;28;20184;-62
2023/12/24 06:01:37;;;;;;;0.43;0.43;;;5.40;84.00;;;;;;6298955;28;20191;-62
2023/12/24 06:04:37;;;;;;;1.50;0.67;;;5.50;84.20;;;;;;6298323;28;20760;-63
2023/12/24 06:07:38;;;;;;;1.20;0.60;;;5.50;83.80;;;;;;6324327;28;20649;-62
2023/12/24 06:10:39;;;;;;;0.60;0.43;;;5.50;83.50;;;;;;6302853;28;20184;-62
2023/12/24 06:13:39;;;;;;;0.50;0.50;;;5.60;84.40;;;;;;6295031;28;20184;-62
2023/12/24 06:16:40;;;;;;;0.90;0.80;;;5.60;83.90;;;;;;6296970;28;20184;-62
2023/12/24 06:19:41;;;;;;;1.47;0.93;;;5.60;83.00;;;;;;6299268;28;20191;-63
2023/12/24 06:22:41;;;;;;;1.00;0.90;;;5.70;83.20;;;;;;6297366;28;20227;-62
2023/12/24 06:25:42;;;;;;;2.03;1.50;;;5.70;83.50;;;;;;6315158;28;20213;-62
2023/12/24 06:28:43;;;;;;;2.90;1.40;;;5.70;81.90;;;;;;6313526;28;20196;-63
2023/12/24 06:31:43;;;;;;;1.30;1.20;;;5.70;82.90;;;;;;6331107;28;20194;-62
2023/12/24 06:34:44;;;;;;;0.70;0.70;;;5.70;82.70;;;;;;6332827;28;20188;-62
2023/12/24 06:37:45;;;;;;;1.20;1.10;;;5.70;83.00;;;;;;6296923;28;20188;-63
2023/12/24 06:40:45;;;;;;;2.07;1.00;;;5.70;82.40;;;;;;6303439;28;20253;-62
2023/12/24 06:43:46;;;;;;;1.37;1.03;;;5.70;82.50;;;;;;6294966;28;20244;-62
2023/12/24 06:46:47;;;;;;;1.20;1.10;;;5.70;83.20;;;;;;6271693;28;20212;-61
2023/12/24 06:49:47;;;;;;;1.00;0.90;;;5.70;82.70;;;;;;6286307;28;20244;-62
2023/12/24 06:52:48;;;;;;;0.83;0.80;;;5.70;82.80;;;;;;6278221;28;20234;-63
2023/12/24 06:55:49;;;;;;;1.00;0.90;;;5.70;83.30;;;;;;6290505;28;20192;-62
2023/12/24 06:58:49;;;;;;;1.33;1.07;;;5.80;83.90;;;;;;6281049;28;20192;-62
2023/12/24 07:01:50;;;;;;;1.73;1.10;;;5.80;83.80;;;;;;6274275;28;20188;-63
2023/12/24 07:04:51;;;;;;;2.13;1.10;;;5.80;84.30;;;;;;6274254;28;20188;-62
2023/12/24 07:07:51;;;;;;;2.57;1.17;;;5.90;84.30;;;;;;6274463;28;20242;-62
2023/12/24 07:10:52;;;;;;;0.87;0.87;;;5.90;83.60;;;;;;6273587;28;20626;-60
2023/12/24 07:13:53;;;;;;;1.77;1.23;;;5.90;83.20;;;;;;6279960;28;20192;-61
2023/12/24 07:16:53;;;;;;;1.17;1.07;;;6.00;83.90;;;;;;6302008;28;20297;-61
2023/12/24 07:19:54;;;;;;;1.27;1.00;;;6.00;83.90;;;;;;6304932;28;20198;-61
2023/12/24 07:22:55;;;;;;;1.30;1.10;;;6.00;83.20;;;;;;6284888;28;20187;-61
2023/12/24 07:25:55;;;;;;;1.60;1.40;;;6.10;83.00;;;;;;6284938;28;20202;-62
2023/12/24 07:28:56;;;;;;;1.90;1.80;;;6.10;82.70;;;;;;6268256;28;20180;-62
2023/12/24 07:31:57;;;;;;;1.37;1.27;;;6.10;82.70;;;;;;6271892;28;20246;-59
2023/12/24 07:34:57;;;;;;;2.43;1.30;;;6.10;82.50;;;;;;6293278;28;20184;-61
2023/12/24 07:37:58;;;;;;;1.77;1.40;;;6.20;82.70;;;;;;6291484;28;20196;-61
2023/12/24 07:40:59;;;;;;;1.60;1.50;;;6.20;82.70;;;;;;6290692;28;20185;-61
2023/12/24 07:44:00;;;;;;;1.30;1.20;;;6.20;82.50;;;;;;6274725;28;20239;-60
2023/12/24 07:47:01;;;;;;;1.53;1.30;;;6.30;82.20;;;;;;6290639;28;20301;-60
2023/12/24 07:50:02;;;;;;;1.70;1.60;;;6.30;82.00;;;;;;6312533;28;20232;-62
2023/12/24 07:53:03;;;;;;;1.50;1.40;;;6.30;82.40;;;;;;6278674;28;20188;-60
2023/12/24 07:56:04;;;;;;;1.80;1.23;;;6.40;82.50;;;;;;6289151;28;20183;-60
2023/12/24 07:59:05;;;;;;;2.00;1.23;;;6.50;83.00;;;;;;6274400;28;20192;-60
2023/12/24 08:02:05;;;;;;;1.57;1.07;;;6.50;83.20;;;;;;6275493;28;20557;-61
2023/12/24 08:05:06;;;;;;;1.70;1.40;;;6.60;83.00;;;;;;6287696;28;20261;-61
2023/12/24 08:08:07;;;;;;;3.10;1.57;;;6.70;82.20;;;;;;6290241;28;20204;-61
2023/12/24 08:11:08;;;;;;;2.00;1.83;;;6.70;81.90;;;;;;6299519;28;20306;-60
2023/12/24 08:14:08;;;;;;;2.10;1.90;;;6.70;82.00;;;;;;6291490;28;20200;-63
2023/12/24 08:17:10;;;;;;;4.43;1.80;;;6.70;81.60;;;;;;6293404;28;20194;-62
2023/12/24 08:20:11;;;;;;;2.57;2.10;;;6.80;82.00;;;;;;6292024;28;20189;-62
2023/12/24 08:23:12;;;;;;;3.07;2.50;;;6.80;81.20;;;;;;6291288;28;20195;-63
2023/12/24 08:26:13;;;;;;;3.13;2.30;;;6.70;80.10;;;;;;6278756;28;20211;-63
2023/12/24 08:29:13;;;;;;;2.30;2.10;;;6.70;80.40;;;;;;6271704;28;20291;-63
2023/12/24 08:32:14;;;;;;;3.07;2.53;;;6.70;79.90;;;;;;6271370;28;20179;-63
2023/12/24 08:35:15;;;;;;;2.60;2.33;;;6.80;81.60;;;;;;6285330;28;20176;-62
2023/12/24 08:38:15;;;;;;;3.80;2.43;;;6.80;80.70;;;;;;6266625;28;20185;-65
2023/12/24 08:41:16;;;;;;;2.50;2.23;;;6.80;80.70;;;;;;6276638;28;20217;-64
2023/12/24 08:44:17;;;;;;;3.40;2.57;;;6.90;80.90;;;;;;6298389;28;20239;-63
2023/12/24 08:47:17;;;;;;;3.03;2.73;;;6.90;81.30;;;;;;6297143;28;20203;-63
2023/12/24 08:50:18;;;;;;;4.13;2.40;;;6.90;81.50;;;;;;6293616;28;20233;-64
2023/12/24 08:53:19;;;;;;;3.03;2.40;;;6.90;81.50;;;;;;6295882;28;20188;-62
2023/12/24 08:56:19;;;;;;;3.73;2.27;;;6.90;81.40;;;;;;6298322;28;20191;-62
2023/12/24 08:59:20;;;;;;;4.10;3.27;;;7.00;80.80;;;;;;6334593;28;20232;-63
2023/12/24 09:02:21;;;;;;;4.63;2.73;;;7.00;80.00;;;;;;6300543;28;20176;-63
2023/12/24 09:05:22;;;;;;;5.57;3.17;;;7.00;80.40;;;;;;6299672;28;20184;-65
2023/12/24 09:08:22;;;;;;;4.90;3.30;;;7.00;80.50;;;;;;6307918;28;20203;-63
2023/12/24 09:11:23;;;;;;;5.37;4.27;;;7.00;80.60;;;;;;6296563;28;20184;-61
2023/12/24 09:14:24;;;;;;;5.17;3.90;;;7.00;79.30;;;;;;6296633;28;20222;-59
2023/12/24 09:17:24;;;;;;;4.97;4.10;;;7.00;80.00;;;;;;6298557;28;20219;-61
2023/12/24 09:20:25;;;;;;;6.40;4.27;;;7.00;80.50;;;;;;6297467;28;20203;-61
2023/12/24 09:23:26;;;;;;;7.30;5.03;;;7.00;80.00;;;;;;6286956;28;20344;-61
2023/12/24 09:26:26;;;;;;;8.33;4.70;;;7.00;79.30;;;;;;6307225;28;20209;-61
2023/12/24 09:29:27;;;;;;;6.77;4.57;;;7.10;79.60;;;;;;6298809;28;20191;-60
2023/12/24 09:32:28;;;;;;;5.38;4.45;;;7.10;80.00;;;;;;6298665;28;20720;-61
2023/12/24 09:35:30;;;;;;;6.03;4.50;;;7.20;80.40;;;;;;6295887;28;20232;-66
2023/12/24 09:38:30;;;;;;;6.60;4.43;;;7.20;80.40;;;;;;6295440;28;20716;-68
2023/12/24 09:41:31;;;;;;;4.43;4.03;;;7.20;80.20;;;;;;6296909;28;20232;-63
2023/12/24 09:44:34;;;;;;;6.93;4.63;;;7.30;80.00;;;;;;6304547;28;20247;-64
2023/12/24 09:47:34;;;;;;;7.63;4.83;;;7.40;80.20;;;;;;6313683;28;20212;-62
2023/12/24 09:50:35;;;;;;;5.63;3.70;;;7.50;78.20;;;;;;6301491;28;20224;-61
2023/12/24 09:53:36;;;;;;;5.93;3.97;;;7.50;79.30;;;;;;6293545;28;20215;-64
2023/12/24 09:56:36;;;;;;;5.63;3.40;;;7.60;78.50;;;;;;6293437;28;20195;-66
2023/12/24 09:59:37;;;;;;;5.27;3.80;;;7.80;78.10;;;;;;6296887;28;20184;-62
2023/12/24 10:02:38;;;;;;;6.93;4.10;;;7.80;78.00;;;;;;6312201;28;20233;-61
2023/12/24 10:05:58;;;;;;;4.73;3.83;;;8.00;77.90;;;;;;6294403;28;20190;-61
2023/12/24 10:08:59;;;;;;;4.90;4.20;;;8.00;77.70;;;;;;6324685;28;20203;-62
2023/12/24 10:12:04;;;;;;;7.87;4.60;;;8.10;77.60;;;;;;6296041;28;20191;-67
2023/12/24 10:15:05;;;;;;;8.07;5.10;;;8.10;77.70;;;;;;6301524;28;20184;-67
2023/12/24 10:18:19;;;;;;;6.23;4.33;;;8.10;77.50;;;;;;6295517;28;20176;-61
2023/12/24 10:21:20;;;;;;;4.30;3.50;;;8.20;76.20;;;;;;6325780;28;20180;-69
2023/12/24 10:24:21;;;;;;;4.77;3.33;;;8.20;76.80;;;;;;6297065;28;20187;-66
2023/12/24 10:27:21;;;;;;;5.90;4.13;;;8.30;76.50;;;;;;6290471;28;20300;-68
2023/12/24 10:30:22;;;;;;;5.13;3.33;;;8.40;75.20;;;;;;6304786;27;20213;-63
2023/12/24 10:33:23;;;;;;;4.87;3.50;;;8.50;76.10;;;;;;6330042;28;20187;-67
2023/12/24 10:36:23;;;;;;;4.20;3.53;;;8.50;75.00;;;;;;6291000;28;20249;-65
2023/12/24 10:39:25;;;;;;;4.40;3.50;;;8.60;74.60;;;;;;6331153;28;20188;-65
2023/12/24 10:42:26;;;;;;;4.47;3.33;;;;;;;;;;6328230;28;20184;-65
2023/12/24 10:45:27;;;;;;;4.33;3.27;;;8.60;73.90;;;;;;6310560;28;20250;-61
2023/12/24 10:48:28;;;;;;;4.30;3.47;;;8.90;73.40;;;;;;6303286;28;20222;-60
2023/12/24 10:51:28;;;;;;;3.30;3.00;;;9.00;70.60;;;;;;6293959;28;20187;-61
2023/12/24 10:54:30;;;;;;;4.73;3.07;;;;;;;;;;6291979;28;20277;-60
2023/12/24 10:57:38;;;;;;;3.63;2.37;;;;;;;;;;6312259;28;20278;-60
2023/12/24 11:00:38;;;;;;;1.97;1.73;;;9.00;72.30;;;;;;6313133;28;20245;-60
2023/12/24 11:03:50;;;;;;;3.43;2.20;;;9.40;71.10;;;;;;6291420;28;20191;-61
2023/12/24 11:06:50;;;;;;;2.73;2.20;;;9.50;69.20;;;;;;6311328;28;20196;-61
2023/12/24 11:09:51;;;;;;;2.60;1.93;;;9.60;69.10;;;;;;6289916;28;20218;-60
2023/12/24 11:12:52;;;;;;;2.97;2.00;;;9.80;69.50;;;;;;6281054;28;20196;-60
2023/12/24 11:15:53;;;;;;;4.07;2.23;;;9.90;68.90;;;;;;6291009;28;20175;-63
2023/12/24 11:18:56;;;;;;;6.20;3.27;;;10.00;68.70;;;;;;6304825;28;20193;-60
2023/12/24 11:22:10;;;;;;;6.47;3.43;;;10.10;67.20;;;;;;6310827;28;20184;-60
2023/12/24 11:25:17;;;;;;;5.40;3.23;;;10.20;67.50;;;;;;6302097;28;20187;-60
2023/12/24 11:28:27;;;;;;;5.57;4.03;;;10.30;66.80;;;;;;6308942;28;20213;-60
2023/12/24 11:31:29;;;;;;;4.33;3.07;;;10.40;67.20;;;;;;6322746;28;20189;-61
2023/12/24 11:34:33;;;;;;;4.40;2.80;;;10.50;67.90;;;;;;6304666;28;20188;-60
2023/12/24 11:37:36;;;;;;;4.40;3.27;;;;;;;;;;6320528;28;20424;-60
2023/12/24 11:40:37;;;;;;;4.77;2.80;;;;;;;;;;6327488;28;20184;-60
2023/12/24 11:43:39;;;;;;;7.53;3.43;;;;;;;;;;6309503;28;20239;-62
2023/12/24 11:46:42;;;;;;;5.37;3.37;;;;;;;;;;6309014;28;20622;-61
2023/12/24 11:49:46;;;;;;;4.00;2.87;;;;;;;;;;6310360;28;20200;-61
2023/12/24 11:52:49;;;;;;;4.63;3.50;;;;;;;;;;6326277;28;20225;-61
2023/12/24 11:56:03;;;;;;;4.63;3.40;;;;;;;;;;6302624;28;20193;-61
2023/12/24 11:59:05;;;;;;;3.07;2.50;;;;;;;;;;6325980;28;20264;-61
2023/12/24 12:02:06;;;;;;;6.00;2.77;;;;;;;;;;6322879;28;20196;-62
2023/12/24 12:05:08;;;;;;;5.27;3.20;;;;;;;;;;6340870;28;20191;-61
2023/12/24 12:08:09;;;;;;;6.57;2.90;;;;;;;;;;6303828;28;20733;-62
2023/12/24 12:11:11;;;;;;;3.10;2.53;;;;;;;;;;6305315;28;20202;-62
2023/12/24 12:14:12;;;;;;;3.20;2.73;;;;;;;;;;6311209;28;20191;-61
2023/12/24 12:17:13;;;;;;;2.80;2.50;;;;;;;;;;6292303;28;20865;-64
2023/12/24 12:20:14;;;;;;;2.83;2.50;;;;;;;;;;6315747;28;20725;-60
2023/12/24 12:23:18;;;;;;;3.33;1.73;;;;;;;;;;6304877;28;20200;-61
2023/12/24 12:26:19;;;;;;;2.57;2.00;;;;;;;;;;6311107;28;20212;-60
2023/12/24 12:29:20;;;;;;;2.43;1.90;;;;;;;;;;6309779;28;20199;-61
2023/12/24 12:32:21;;;;;;;2.73;2.27;;;;;;;;;;6317382;28;20187;-61
2023/12/24 12:35:22;;;;;;;3.00;2.53;;;;;;;;;;6315928;28;20187;-62
2023/12/24 12:38:24;;;;;;;3.03;2.10;;;;;;;;;;6306728;28;20653;-61
2023/12/24 12:41:25;;;;;;;5.63;2.60;;;;;;;;;;6327165;28;20267;-63
2023/12/24 12:44:26;;;;;;;3.37;2.20;;;;;;;;;;6309463;28;20247;-62
2023/12/24 12:47:27;;;;;;;3.20;1.97;;;;;;;;;;6314060;28;20227;-62
2023/12/24 12:50:28;;;;;;;2.83;1.80;;;;;;;;;;6316799;28;20198;-63
2023/12/24 12:53:29;;;;;;;2.13;1.93;;;;;;;;;;6315402;28;20188;-60
2023/12/24 12:56:30;;;;;;;1.77;1.67;;;;;;;;;;6309887;28;20215;-64
2023/12/24 12:59:32;;;;;;;1.70;1.60;;;;;;;;;;6314126;28;20195;-61
2023/12/24 13:02:33;;;;;;;4.03;1.90;;;;;;;;;;6332290;28;20183;-59
2023/12/24 13:05:34;;;;;;;2.97;1.90;;;;;;;;;;6304066;28;20200;-61
2023/12/24 13:08:35;;;;;;;2.43;1.50;;;;;;;;;;6325373;27;20246;-62
2023/12/24 13:11:36;;;;;;;2.13;1.50;;;;;;;;;;6320382;28;20225;-64
2023/12/24 13:14:37;;;;;;;2.43;2.10;;;;;;;;;;6316193;28;20278;-63
2023/12/24 13:17:38;;;;;;;2.37;1.80;;;;;;;;;;6332519;28;20191;-60
2023/12/24 13:20:39;;;;;;;2.93;2.03;;;;;;;;;;6315640;28;20191;-62
2023/12/24 13:23:43;;;;;;;2.33;1.57;;;;;;;;;;6332493;28;20271;-64
2023/12/24 13:26:44;;;;;;;3.00;2.10;;;;;;;;;;6316237;28;20250;-59
2023/12/24 13:29:45;;;;;;;3.83;2.30;;;;;;;;;;6315896;28;20191;-64
2023/12/24 13:32:46;;;;;;;2.83;1.77;;;;;;;;;;6318802;28;20234;-65
2023/12/24 13:35:47;;;;;;;4.17;1.97;;;;;;;;;;6314568;28;20195;-63
2023/12/24 13:38:48;;;;;;;2.87;2.00;;;;;;;;;;6324954;27;20189;-66
2023/12/24 13:41:49;;;;;;;3.33;2.33;;;;;;;;;;6314491;28;20248;-64
2023/12/24 13:44:50;;;;;;;2.93;1.90;;;;;;;;;;6329631;28;20243;-63
2023/12/24 13:47:51;;;;;;;3.10;2.30;;;;;;;;;;6319432;28;20214;-64
2023/12/24 13:50:52;;;;;;;4.40;2.67;;;;;;;;;;6314452;28;20192;-63
2023/12/24 13:53:54;;;;;;;3.27;2.23;;;;;;;;;;6326907;28;20189;-61
2023/12/24 13:56:55;;;;;;;3.67;2.60;;;;;;;;;;6308362;28;20192;-61
2023/12/24 13:59:56;;;;;;;4.17;2.90;;;;;;;;;;6312900;28;20195;-61
2023/12/24 14:02:57;;;;;;;4.30;2.97;;;;;;;;;;6307990;28;20189;-61
2023/12/24 14:05:58;;;;;;;3.00;2.70;;;;;;;;;;6314921;28;20192;-61
2023/12/24 14:08:59;;;;;;;3.37;2.87;;;;;;;;;;6302867;28;20219;-60
2023/12/24 14:12:00;;;;;;;3.33;2.73;;;;;;;;;;6311913;28;20279;-60
2023/12/24 14:15:06;;;;;;;3.73;2.47;;;;;;;;;;6315088;28;20192;-60
2023/12/24 14:18:07;;;;;;;3.60;2.43;;;;;;;;;;6311461;28;20216;-61
2023/12/24 14:21:08;;;;;;;3.47;2.73;;;;;;;;;;6309636;28;20195;-61
2023/12/24 14:24:09;;;;;;;3.07;2.37;;;;;;;;;;6311085;28;20202;-60
2023/12/24 14:27:10;;;;;;;5.03;3.00;;;;;;;;;;6313703;28;20231;-61
2023/12/24 14:30:11;;;;;;;4.53;2.60;;;;;;;;;;6306793;28;20726;-61
2023/12/24 14:33:12;;;;;;;5.23;3.13;;;;;;;;;;6331425;28;20187;-60
2023/12/24 14:36:15;;;;;;;3.47;2.93;;;;;;;;;;6306344;28;20192;-60
2023/12/24 14:39:16;;;;;;;4.03;3.30;;;;;;;;;;6322217;28;20221;-60
2023/12/24 14:42:17;;;;;;;4.40;3.27;;;;;;;;;;6314048;28;20180;-60
2023/12/24 14:45:18;;;;;;;5.67;3.00;;;;;;;;;;6314571;28;20234;-61
2023/12/24 14:48:19;;;;;;;3.83;3.00;;;;;;;;;;6314167;28;20200;-60
2023/12/24 14:51:21;;;;;;;6.07;3.63;;;;;;;;;;6314269;28;20187;-62
2023/12/24 14:54:22;;;;;;;5.90;3.87;;;;;;;;;;6313397;28;20191;-61
2023/12/24 14:57:27;;;;;;;6.50;3.97;;;;;;;;;;6301198;28;20215;-61
2023/12/24 15:00:28;;;;;;;5.43;3.33;;;;;;;;;;6329021;28;20198;-60
2023/12/24 15:03:29;;;;;;;4.10;3.43;;;;;;;;;;6312280;28;20203;-60
2023/12/24 15:06:30;;;;;;;5.17;3.37;;;;;;;;;;6309845;28;20560;-59
2023/12/24 15:09:31;;;;;;;5.60;3.57;;;;;;;;;;6310952;28;20194;-60
2023/12/24 15:12:32;;;;;;;7.07;4.43;;;;;;;;;;6318950;28;20187;-59
2023/12/24 15:15:33;;;;;;;6.47;4.03;;;;;;;;;;6318636;28;20197;-60
2023/12/24 15:18:34;;;;;;;6.97;4.10;;;;;;;;;;6313024;28;20253;-61
2023/12/24 15:21:35;;;;;;;6.63;3.97;;;;;;;;;;6313567;28;20199;-60
2023/12/24 15:24:36;;;;;;;9.33;3.87;;;;;;;;;;6312898;28;20195;-60
2023/12/24 15:27:38;;;;;;;3.57;2.93;;;;;;;;;;6312714;28;20215;-62
2023/12/24 15:30:39;;;;;;;5.87;3.83;;;;;;;;;;6318855;28;20357;-62
2023/12/24 15:33:40;;;;;;;7.57;5.77;;;;;;;;;;6305351;28;20188;-62
2023/12/24 15:36:41;;;;;;;10.50;6.10;;;;;;;;;;6313346;28;20657;-63
2023/12/24 15:39:43;;;;;;;7.70;5.00;;;;;;;;;;6307583;28;20207;-61
2023/12/24 15:42:44;;;;;;;6.93;4.90;;;;;;;;;;6305212;28;20698;-61
2023/12/24 15:45:45;;;;;;;8.67;5.47;;;;;;;;;;6328869;28;20232;-62
2023/12/24 15:48:46;;;;;;;8.47;5.60;;;;;;;;;;6308062;28;20610;-62
2023/12/24 15:51:47;;;;;;;8.60;5.73;;;;;;;;;;6305807;28;20184;-62
2023/12/24 15:54:48;;;;;;;6.87;5.20;;;;;;;;;;6306446;28;20274;-61
2023/12/24 15:57:50;;;;;;;7.93;5.53;;;;;;;;;;6327135;28;20195;-61
2023/12/24 16:00:51;;;;;;;7.73;5.07;;;;;;;;;;6324676;28;20326;-60
2023/12/24 16:03:52;;;;;;;7.23;5.00;;;;;;;;;;6308759;28;20278;-60
2023/12/24 16:06:53;;;;;;;6.40;4.50;;;;;;;;;;6305650;28;20228;-61
2023/12/24 16:09:55;;;;;;;6.87;4.90;;;;;;;;;;6296016;28;20204;-61
2023/12/24 16:12:56;;;;;;;6.03;5.10;;;;;;;;;;6310726;28;20220;-62
2023/12/24 16:15:57;;;;;;;6.33;5.00;;;;;;;;;;6309640;28;20196;-63
2023/12/24 16:18:58;;;;;;;5.43;4.63;;;;;;;;;;6326042;28;20188;-62
2023/12/24 16:21:59;;;;;;;7.30;4.80;;;;;;;;;;6307933;28;20192;-61
2023/12/24 16:25:00;;;;;;;5.07;4.57;;;;;;;;;;6317138;28;20195;-61
2023/12/24 16:28:01;;;;;;;7.45;6.00;;;;;;;;;;6296637;28;21087;-64
2023/12/24 16:31:03;;;;;;;10.07;5.73;;;;;;;;;;6326829;28;20620;-62
2023/12/24 16:34:04;;;;;;;6.73;5.03;;;;;;;;;;6302414;28;20264;-64
2023/12/24 16:37:05;;;;;;;5.57;4.60;;;;;;;;;;6322340;28;20209;-64
2023/12/24 16:40:06;;;;;;;10.67;5.43;;;;;;;;;;6303446;28;20195;-62
2023/12/24 16:43:07;;;;;;;6.63;4.67;;;;;;;;;;6311846;28;20184;-62
2023/12/24 16:46:08;;;;;;;5.93;5.07;;;;;;;;;;6303215;28;20242;-64
2023/12/24 16:49:09;;;;;;;5.80;4.93;;;;;;;;;;6321774;28;20669;-67
2023/12/24 16:52:10;;;;;;;5.40;4.50;;;;;;;;;;6326476;28;20240;-66
2023/12/24 16:55:12;;;;;;;4.23;3.83;;;;;;;;;;6307404;28;20227;-65
2023/12/24 16:58:13;;;;;;;4.53;3.87;;;;;;;;;;6298346;28;20196;-66
2023/12/24 17:01:14;;;;;;;5.03;4.37;;;;;;;;;;6310739;28;20236;-65
2023/12/24 17:04:16;;;;;;;8.60;4.77;;;;;;;;;;6325818;28;20187;-65
2023/12/24 17:07:17;;;;;;;6.77;4.87;;;;;;;;;;6314894;28;20215;-66
2023/12/24 17:10:20;;;;;;;5.37;4.60;;;;;;;;;;6300780;28;20211;-65